Guthrie, North Carolina
Current Conditions -  °F | °C
As of 10:54 PM on Wednesday 17 Dec 2014 (Local Time) from KGSO Reporting Station
Broken Clouds Broken Clouds  
Wind Chill: 43°   Ceiling: 25000
Heat Index: 43°   Visibility: 10mi
Dew Point: 29°   Wind: 0mph
Humidity: 58%   Direction: NA
Pressure: 30.07"   Gusts: NA
Location:  36.1188°N, 80.075°W
Report Text: KGSO 180354Z 00000KT 10SM BKN250 06/M02 A3007 RMK AO2 SLP181 T00611017
Loading
Personal Weather Stations






























Interactive Weather Map New forecast layout! Learn more

10-Day Weather Forecast

Advertisements
Track Severe Weather on mobile